Irwin, Iowa
Current Conditions -  °F | °C
As of 2:15 AM on Sunday 21 Dec 2014 (Local Time) from KHNR Reporting Station
Haze Haze  
Wind Chill: 27°   Ceiling: 700
Heat Index: 36°   Visibility: 4mi
Dew Point: 36°   Wind: 14mph
Humidity: 100%   Direction: 180°S
Pressure: 30.01"   Gusts: NA
Location:  41.79°N, 95.21°W
Report Text: KHNR 210815Z AUTO 18012KT 4SM BR BKN007 BKN029 OVC033 02/02 A3001 RMK AO2
Loading
Personal Weather Stations






























Interactive Weather Map New forecast layout! Learn more

10-Day Weather Forecast

Advertisements
Track Severe Weather on mobile